Skip Navigation Links
NOAA logo - Click to go to the NOAA homepage
NOAA's National Weather Service
Alaska Aviation Weather Unit
  NWS logo - Click to go to the NWS homepage
Left Navbar Graphic     23 AKDT = 07 GMT

   
NOAA is celebrating 200 years of science, service, and stewardship. Visit the NOAA 200th celebration Web site to learn more.
USA.gov is the U.S. Government's official Web portal to all Federal, state and local government Web resources and services.
Facebook
NWS on Facebook

Important Change Regarding the AAWU Web Presence

 

Over the last several months, the AAWU has been working to navigate its webpages to a nationally supported server. Security, as well as other needs, have necessitated the change.  In the process, we have made an effort to enhance the functionality of our website, as well as some of our products. As of June 20, 2017, aawu.arh.noaa.gov will be discontinued. The new AAWU web address is weather.gov/aawu. It is now live and will run in-parallel with the old site until it is discontinued. Please send any feedback or questions regarding the new webpages to nws.ar.aawu.webauthors@noaa.gov.  Thank you for your patience during this time of transition.
AAWU Home :: Display TAF Add Bookmark
TAF PAWG 240520Z 2406/2506 30008KT P6SM VCSH SCT010 BKN025 OVC045
     FM240900 26004KT P6SM BKN025 OVC040
     FM242100 28008KT P6SM BKN035
      AMD LTD TO CLD VIS AND WIND 2406/2415=

PAWG 240150Z 24009KT 10SM FEW004 BKN020 OVC040 10/09 A2993= METAR PAWG 240256Z 24008KT 10SM SCT010 BKN030 OVC050 10/08 A2995= METAR PAWG 240356Z 25007KT 10SM SCT010 BKN030 OVC050 11/08 A2997= METAR PAWG 240456Z 29005KT 10SM -RA SCT010 BKN028 BKN045 10/08 A3000= METAR PAWG 240558Z 25009KT 10SM SCT010 BKN040 BKN055 10/07 A3003= METAR PAWG 240656Z AUTO 25009KT 10SM SCT010 BKN040 BKN055 10/06 A3007=
 Alaska TAF Map

NOAA's National Weather Service
Alaska Aviation Weather Unit
6930 Sand Lake Road
Anchorage, AK 99502-1845
Disclaimer
Credits
Glossary
Privacy Policy
About Us
Career Opportunities
Contact AAWU Internet Services Site last modified: April, 17th 2012